sensor_id;sensor_type;location;lat;lon;timestamp;temperature;humidity
19132;DHT22;9698;51.976;7.570;2023-05-25T00:00:45;13.30;99.90
19132;DHT22;9698;51.976;7.570;2023-05-25T00:03:29;13.20;99.90
19132;DHT22;9698;51.976;7.570;2023-05-25T00:05:57;13.10;99.90
19132;DHT22;9698;51.976;7.570;2023-05-25T00:08:27;12.90;99.90
19132;DHT22;9698;51.976;7.570;2023-05-25T00:10:55;12.80;99.90
19132;DHT22;9698;51.976;7.570;2023-05-25T00:13:23;12.60;99.90
19132;DHT22;9698;51.976;7.570;2023-05-25T00:15:51;12.50;99.90
19132;DHT22;9698;51.976;7.570;2023-05-25T00:18:19;12.60;99.90
19132;DHT22;9698;51.976;7.570;2023-05-25T00:20:47;12.60;99.90
19132;DHT22;9698;51.976;7.570;2023-05-25T00:23:14;12.60;99.90
19132;DHT22;9698;51.976;7.570;2023-05-25T00:25:43;12.60;99.90
19132;DHT22;9698;51.976;7.570;2023-05-25T00:28:11;12.60;99.90
19132;DHT22;9698;51.976;7.570;2023-05-25T00:30:39;12.60;99.90
19132;DHT22;9698;51.976;7.570;2023-05-25T00:33:07;12.50;99.90
19132;DHT22;9698;51.976;7.570;2023-05-25T00:35:36;12.40;99.90
19132;DHT22;9698;51.976;7.570;2023-05-25T00:38:04;12.70;99.90
19132;DHT22;9698;51.976;7.570;2023-05-25T00:40:32;12.30;99.90
19132;DHT22;9698;51.976;7.570;2023-05-25T00:43:01;12.20;99.90
19132;DHT22;9698;51.976;7.570;2023-05-25T00:45:29;12.10;99.90
19132;DHT22;9698;51.976;7.570;2023-05-25T00:47:58;12.30;99.90
19132;DHT22;9698;51.976;7.570;2023-05-25T00:50:36;12.10;99.90
19132;DHT22;9698;51.976;7.570;2023-05-25T00:53:05;12.00;99.90
19132;DHT22;9698;51.976;7.570;2023-05-25T00:55:36;11.90;99.90
19132;DHT22;9698;51.976;7.570;2023-05-25T00:58:05;12.00;99.90
19132;DHT22;9698;51.976;7.570;2023-05-25T01:00:34;12.00;99.90
19132;DHT22;9698;51.976;7.570;2023-05-25T01:05:53;11.80;99.90
19132;DHT22;9698;51.976;7.570;2023-05-25T01:08:23;11.80;99.90
19132;DHT22;9698;51.976;7.570;2023-05-25T01:10:51;11.80;99.90
19132;DHT22;9698;51.976;7.570;2023-05-25T01:16:08;12.40;99.90
19132;DHT22;9698;51.976;7.570;2023-05-25T01:18:36;11.90;99.90
19132;DHT22;9698;51.976;7.570;2023-05-25T01:21:13;11.90;99.90
19132;DHT22;9698;51.976;7.570;2023-05-25T01:23:50;12.00;99.90
19132;DHT22;9698;51.976;7.570;2023-05-25T01:26:20;11.90;99.90
19132;DHT22;9698;51.976;7.570;2023-05-25T01:28:52;12.00;99.90
19132;DHT22;9698;51.976;7.570;2023-05-25T01:31:22;12.00;99.90
19132;DHT22;9698;51.976;7.570;2023-05-25T01:33:51;11.90;99.90
19132;DHT22;9698;51.976;7.570;2023-05-25T01:36:20;11.80;99.90
19132;DHT22;9698;51.976;7.570;2023-05-25T01:38:48;11.80;99.90
19132;DHT22;9698;51.976;7.570;2023-05-25T01:41:16;11.80;99.90
19132;DHT22;9698;51.976;7.570;2023-05-25T01:43:44;11.70;99.90
19132;DHT22;9698;51.976;7.570;2023-05-25T01:46:25;11.60;99.90
19132;DHT22;9698;51.976;7.570;2023-05-25T01:49:00;11.60;99.90
19132;DHT22;9698;51.976;7.570;2023-05-25T01:51:37;11.70;99.90
19132;DHT22;9698;51.976;7.570;2023-05-25T01:54:09;11.80;99.90
19132;DHT22;9698;51.976;7.570;2023-05-25T01:56:39;11.70;99.90
19132;DHT22;9698;51.976;7.570;2023-05-25T01:59:10;11.40;99.90
19132;DHT22;9698;51.976;7.570;2023-05-25T02:01:38;12.40;99.90
19132;DHT22;9698;51.976;7.570;2023-05-25T02:04:08;11.70;99.90
19132;DHT22;9698;51.976;7.570;2023-05-25T02:06:36;11.60;99.90
19132;DHT22;9698;51.976;7.570;2023-05-25T02:09:04;11.50;99.90
19132;DHT22;9698;51.976;7.570;2023-05-25T02:11:32;11.40;99.90
19132;DHT22;9698;51.976;7.570;2023-05-25T02:14:00;11.50;99.90
19132;DHT22;9698;51.976;7.570;2023-05-25T02:16:28;11.50;99.90
19132;DHT22;9698;51.976;7.570;2023-05-25T02:18:56;11.30;99.90
19132;DHT22;9698;51.976;7.570;2023-05-25T02:21:24;11.30;99.90
19132;DHT22;9698;51.976;7.570;2023-05-25T02:23:52;11.30;99.90
19132;DHT22;9698;51.976;7.570;2023-05-25T02:26:20;11.20;99.90
19132;DHT22;9698;51.976;7.570;2023-05-25T02:28:48;11.20;99.90
19132;DHT22;9698;51.976;7.570;2023-05-25T02:31:17;11.30;99.90
19132;DHT22;9698;51.976;7.570;2023-05-25T02:33:45;11.30;99.90
19132;DHT22;9698;51.976;7.570;2023-05-25T02:36:13;11.40;99.90
19132;DHT22;9698;51.976;7.570;2023-05-25T02:38:41;11.30;99.90
19132;DHT22;9698;51.976;7.570;2023-05-25T02:41:09;11.20;99.90
19132;DHT22;9698;51.976;7.570;2023-05-25T02:43:37;11.20;99.90
19132;DHT22;9698;51.976;7.570;2023-05-25T02:46:05;11.30;99.90
19132;DHT22;9698;51.976;7.570;2023-05-25T02:48:33;11.60;99.90
19132;DHT22;9698;51.976;7.570;2023-05-25T02:51:00;11.20;99.90
19132;DHT22;9698;51.976;7.570;2023-05-25T02:53:29;11.10;99.90
19132;DHT22;9698;51.976;7.570;2023-05-25T02:55:57;11.00;99.90
19132;DHT22;9698;51.976;7.570;2023-05-25T02:58:26;11.10;99.90
19132;DHT22;9698;51.976;7.570;2023-05-25T03:00:54;11.10;99.90
19132;DHT22;9698;51.976;7.570;2023-05-25T03:03:23;11.10;99.90
19132;DHT22;9698;51.976;7.570;2023-05-25T03:05:50;11.10;99.90
19132;DHT22;9698;51.976;7.570;2023-05-25T03:08:18;11.10;99.90
19132;DHT22;9698;51.976;7.570;2023-05-25T03:10:46;11.20;99.90
19132;DHT22;9698;51.976;7.570;2023-05-25T03:13:14;10.70;99.90
19132;DHT22;9698;51.976;7.570;2023-05-25T03:15:42;11.20;99.90
19132;DHT22;9698;51.976;7.570;2023-05-25T03:18:10;11.20;99.90
19132;DHT22;9698;51.976;7.570;2023-05-25T03:20:38;11.10;99.90
19132;DHT22;9698;51.976;7.570;2023-05-25T03:23:07;11.20;99.90
19132;DHT22;9698;51.976;7.570;2023-05-25T03:25:35;11.30;99.90
19132;DHT22;9698;51.976;7.570;2023-05-25T03:28:03;11.00;99.90
19132;DHT22;9698;51.976;7.570;2023-05-25T03:30:31;11.00;99.90
19132;DHT22;9698;51.976;7.570;2023-05-25T03:32:59;11.10;99.90
19132;DHT22;9698;51.976;7.570;2023-05-25T03:35:27;11.00;99.90
19132;DHT22;9698;51.976;7.570;2023-05-25T03:37:55;11.00;99.90
19132;DHT22;9698;51.976;7.570;2023-05-25T03:40:23;11.00;99.90
19132;DHT22;9698;51.976;7.570;2023-05-25T03:42:50;11.00;99.90
19132;DHT22;9698;51.976;7.570;2023-05-25T03:45:18;10.90;99.90
19132;DHT22;9698;51.976;7.570;2023-05-25T03:47:46;10.90;99.90
19132;DHT22;9698;51.976;7.570;2023-05-25T03:50:14;11.00;99.90
19132;DHT22;9698;51.976;7.570;2023-05-25T03:52:42;11.00;99.90
19132;DHT22;9698;51.976;7.570;2023-05-25T03:55:10;11.00;99.90
19132;DHT22;9698;51.976;7.570;2023-05-25T03:57:38;11.00;99.90
19132;DHT22;9698;51.976;7.570;2023-05-25T04:00:08;10.90;99.90
19132;DHT22;9698;51.976;7.570;2023-05-25T04:02:36;10.90;99.90
19132;DHT22;9698;51.976;7.570;2023-05-25T04:05:05;10.90;99.90
19132;DHT22;9698;51.976;7.570;2023-05-25T04:07:33;11.00;99.90
19132;DHT22;9698;51.976;7.570;2023-05-25T04:10:03;11.00;99.90
19132;DHT22;9698;51.976;7.570;2023-05-25T04:15:18;10.80;99.90
19132;DHT22;9698;51.976;7.570;2023-05-25T04:17:47;11.10;99.90
19132;DHT22;9698;51.976;7.570;2023-05-25T04:20:15;10.90;99.90
19132;DHT22;9698;51.976;7.570;2023-05-25T04:22:43;11.10;99.90
19132;DHT22;9698;51.976;7.570;2023-05-25T04:25:11;11.20;99.90
19132;DHT22;9698;51.976;7.570;2023-05-25T04:27:39;11.10;99.90
19132;DHT22;9698;51.976;7.570;2023-05-25T04:30:10;11.60;99.90
19132;DHT22;9698;51.976;7.570;2023-05-25T04:32:38;11.10;99.90
19132;DHT22;9698;51.976;7.570;2023-05-25T04:35:08;11.20;99.90
19132;DHT22;9698;51.976;7.570;2023-05-25T04:37:35;11.20;99.90
19132;DHT22;9698;51.976;7.570;2023-05-25T04:40:09;11.20;99.90
19132;DHT22;9698;51.976;7.570;2023-05-25T04:42:38;11.10;99.90
19132;DHT22;9698;51.976;7.570;2023-05-25T04:47:55;11.20;99.90
19132;DHT22;9698;51.976;7.570;2023-05-25T04:50:24;11.20;99.90
19132;DHT22;9698;51.976;7.570;2023-05-25T04:52:52;11.20;99.90
19132;DHT22;9698;51.976;7.570;2023-05-25T04:55:19;11.30;99.90
19132;DHT22;9698;51.976;7.570;2023-05-25T04:57:47;11.20;99.90
19132;DHT22;9698;51.976;7.570;2023-05-25T05:00:17;11.30;99.90
19132;DHT22;9698;51.976;7.570;2023-05-25T05:02:46;11.30;99.90
19132;DHT22;9698;51.976;7.570;2023-05-25T05:05:15;11.30;99.90
19132;DHT22;9698;51.976;7.570;2023-05-25T05:07:43;11.30;99.90
19132;DHT22;9698;51.976;7.570;2023-05-25T05:10:11;11.40;99.90
19132;DHT22;9698;51.976;7.570;2023-05-25T05:12:39;11.40;99.90
19132;DHT22;9698;51.976;7.570;2023-05-25T05:15:08;11.40;99.90
19132;DHT22;9698;51.976;7.570;2023-05-25T05:17:36;11.50;99.90
19132;DHT22;9698;51.976;7.570;2023-05-25T05:20:07;11.60;99.90
19132;DHT22;9698;51.976;7.570;2023-05-25T05:22:35;11.60;99.90
19132;DHT22;9698;51.976;7.570;2023-05-25T05:25:05;11.60;99.90
19132;DHT22;9698;51.976;7.570;2023-05-25T05:27:33;11.60;99.90
19132;DHT22;9698;51.976;7.570;2023-05-25T05:30:01;11.60;99.90
19132;DHT22;9698;51.976;7.570;2023-05-25T05:32:29;11.70;99.90
19132;DHT22;9698;51.976;7.570;2023-05-25T05:34:57;11.80;99.90
19132;DHT22;9698;51.976;7.570;2023-05-25T05:37:25;11.70;99.90
19132;DHT22;9698;51.976;7.570;2023-05-25T05:39:53;11.80;99.90
19132;DHT22;9698;51.976;7.570;2023-05-25T05:42:21;11.30;99.90
19132;DHT22;9698;51.976;7.570;2023-05-25T05:44:48;11.90;99.90
19132;DHT22;9698;51.976;7.570;2023-05-25T05:47:16;11.90;99.90
19132;DHT22;9698;51.976;7.570;2023-05-25T05:49:44;11.90;99.90
19132;DHT22;9698;51.976;7.570;2023-05-25T05:52:13;12.00;99.90
19132;DHT22;9698;51.976;7.570;2023-05-25T05:54:41;12.00;99.90
19132;DHT22;9698;51.976;7.570;2023-05-25T05:57:09;12.00;99.90
19132;DHT22;9698;51.976;7.570;2023-05-25T05:59:37;12.00;99.90
19132;DHT22;9698;51.976;7.570;2023-05-25T06:02:05;12.10;99.90
19132;DHT22;9698;51.976;7.570;2023-05-25T06:04:34;12.20;99.90
19132;DHT22;9698;51.976;7.570;2023-05-25T06:07:01;12.20;99.90
19132;DHT22;9698;51.976;7.570;2023-05-25T06:09:29;12.20;99.90
19132;DHT22;9698;51.976;7.570;2023-05-25T06:11:57;11.90;99.90
19132;DHT22;9698;51.976;7.570;2023-05-25T06:14:26;12.20;99.90
19132;DHT22;9698;51.976;7.570;2023-05-25T06:16:55;12.30;99.90
19132;DHT22;9698;51.976;7.570;2023-05-25T06:19:23;12.30;99.90
19132;DHT22;9698;51.976;7.570;2023-05-25T06:21:51;12.30;99.90
19132;DHT22;9698;51.976;7.570;2023-05-25T06:24:19;12.30;99.90
19132;DHT22;9698;51.976;7.570;2023-05-25T06:26:47;12.30;99.90
19132;DHT22;9698;51.976;7.570;2023-05-25T06:29:15;12.40;99.90
19132;DHT22;9698;51.976;7.570;2023-05-25T06:31:44;12.40;99.90
19132;DHT22;9698;51.976;7.570;2023-05-25T06:34:12;12.40;99.90
19132;DHT22;9698;51.976;7.570;2023-05-25T06:36:40;12.50;99.90
19132;DHT22;9698;51.976;7.570;2023-05-25T06:39:08;12.60;99.90
19132;DHT22;9698;51.976;7.570;2023-05-25T06:41:37;12.60;99.90
19132;DHT22;9698;51.976;7.570;2023-05-25T06:44:06;12.50;99.90
19132;DHT22;9698;51.976;7.570;2023-05-25T06:46:34;12.50;99.90
19132;DHT22;9698;51.976;7.570;2023-05-25T06:49:02;12.50;99.90
19132;DHT22;9698;51.976;7.570;2023-05-25T06:51:30;12.60;99.90
19132;DHT22;9698;51.976;7.570;2023-05-25T06:53:59;12.60;99.90
19132;DHT22;9698;51.976;7.570;2023-05-25T06:56:27;12.70;99.90
19132;DHT22;9698;51.976;7.570;2023-05-25T06:58:55;12.80;99.90
19132;DHT22;9698;51.976;7.570;2023-05-25T07:01:22;12.90;99.90
19132;DHT22;9698;51.976;7.570;2023-05-25T07:03:50;12.90;99.90
19132;DHT22;9698;51.976;7.570;2023-05-25T07:06:19;12.80;99.90
19132;DHT22;9698;51.976;7.570;2023-05-25T07:08:46;13.00;99.90
19132;DHT22;9698;51.976;7.570;2023-05-25T07:11:14;13.00;99.90
19132;DHT22;9698;51.976;7.570;2023-05-25T07:13:46;17.20;99.90
19132;DHT22;9698;51.976;7.570;2023-05-25T07:16:14;13.00;99.90
19132;DHT22;9698;51.976;7.570;2023-05-25T07:18:42;12.90;99.90
19132;DHT22;9698;51.976;7.570;2023-05-25T07:21:11;13.00;99.90
19132;DHT22;9698;51.976;7.570;2023-05-25T07:23:38;12.90;99.90
19132;DHT22;9698;51.976;7.570;2023-05-25T07:26:07;12.80;99.90
19132;DHT22;9698;51.976;7.570;2023-05-25T07:28:35;13.00;99.90
19132;DHT22;9698;51.976;7.570;2023-05-25T07:31:03;13.00;99.90
19132;DHT22;9698;51.976;7.570;2023-05-25T07:33:31;13.10;99.90
19132;DHT22;9698;51.976;7.570;2023-05-25T07:35:59;13.10;99.90
19132;DHT22;9698;51.976;7.570;2023-05-25T07:38:27;13.20;99.90
19132;DHT22;9698;51.976;7.570;2023-05-25T07:40:54;13.10;99.90
19132;DHT22;9698;51.976;7.570;2023-05-25T07:43:22;13.10;99.90
19132;DHT22;9698;51.976;7.570;2023-05-25T07:45:51;13.10;99.90
19132;DHT22;9698;51.976;7.570;2023-05-25T07:48:18;13.10;99.90
19132;DHT22;9698;51.976;7.570;2023-05-25T07:50:47;13.10;99.90
19132;DHT22;9698;51.976;7.570;2023-05-25T07:53:14;12.70;99.90
19132;DHT22;9698;51.976;7.570;2023-05-25T07:55:42;13.10;99.90
19132;DHT22;9698;51.976;7.570;2023-05-25T07:58:11;16.10;99.90
19132;DHT22;9698;51.976;7.570;2023-05-25T08:00:39;13.20;99.90
19132;DHT22;9698;51.976;7.570;2023-05-25T08:05:52;13.40;99.90
19132;DHT22;9698;51.976;7.570;2023-05-25T08:08:20;13.30;99.90
19132;DHT22;9698;51.976;7.570;2023-05-25T08:10:48;13.20;99.90
19132;DHT22;9698;51.976;7.570;2023-05-25T08:13:16;13.00;99.90
19132;DHT22;9698;51.976;7.570;2023-05-25T08:15:44;13.30;99.90
19132;DHT22;9698;51.976;7.570;2023-05-25T08:18:12;13.30;99.90
19132;DHT22;9698;51.976;7.570;2023-05-25T08:20:40;13.40;99.90
19132;DHT22;9698;51.976;7.570;2023-05-25T08:23:08;13.40;99.90
19132;DHT22;9698;51.976;7.570;2023-05-25T08:28:27;13.30;99.90
19132;DHT22;9698;51.976;7.570;2023-05-25T08:30:54;13.30;99.90
19132;DHT22;9698;51.976;7.570;2023-05-25T08:33:25;13.70;99.90
19132;DHT22;9698;51.976;7.570;2023-05-25T08:35:53;13.50;99.90
19132;DHT22;9698;51.976;7.570;2023-05-25T08:38:21;13.60;99.90
19132;DHT22;9698;51.976;7.570;2023-05-25T08:40:59;13.60;99.90
19132;DHT22;9698;51.976;7.570;2023-05-25T08:43:29;13.60;99.90
19132;DHT22;9698;51.976;7.570;2023-05-25T08:46:01;13.70;99.90
19132;DHT22;9698;51.976;7.570;2023-05-25T08:48:30;13.70;99.90
19132;DHT22;9698;51.976;7.570;2023-05-25T08:51:10;13.70;99.90
19132;DHT22;9698;51.976;7.570;2023-05-25T08:53:40;13.80;99.90
19132;DHT22;9698;51.976;7.570;2023-05-25T08:56:15;13.90;99.90
19132;DHT22;9698;51.976;7.570;2023-05-25T08:58:46;13.80;99.90
19132;DHT22;9698;51.976;7.570;2023-05-25T09:01:20;13.80;99.90
19132;DHT22;9698;51.976;7.570;2023-05-25T09:03:50;13.80;99.90
19132;DHT22;9698;51.976;7.570;2023-05-25T09:06:18;13.60;99.90
19132;DHT22;9698;51.976;7.570;2023-05-25T09:11:35;13.60;99.90
19132;DHT22;9698;51.976;7.570;2023-05-25T09:14:08;13.70;99.90
19132;DHT22;9698;51.976;7.570;2023-05-25T09:16:37;13.60;99.90
19132;DHT22;9698;51.976;7.570;2023-05-25T09:19:05;13.20;99.90
19132;DHT22;9698;51.976;7.570;2023-05-25T09:21:33;13.70;99.90
19132;DHT22;9698;51.976;7.570;2023-05-25T09:24:02;13.80;99.90
19132;DHT22;9698;51.976;7.570;2023-05-25T09:26:31;14.00;99.90
19132;DHT22;9698;51.976;7.570;2023-05-25T09:28:59;13.80;99.90
19132;DHT22;9698;51.976;7.570;2023-05-25T09:31:28;14.00;99.90
19132;DHT22;9698;51.976;7.570;2023-05-25T09:33:56;13.80;99.90
19132;DHT22;9698;51.976;7.570;2023-05-25T09:36:26;13.80;99.90
19132;DHT22;9698;51.976;7.570;2023-05-25T09:38:55;14.50;99.90
19132;DHT22;9698;51.976;7.570;2023-05-25T09:41:24;15.00;99.90
19132;DHT22;9698;51.976;7.570;2023-05-25T09:43:54;15.40;99.90
19132;DHT22;9698;51.976;7.570;2023-05-25T09:46:38;15.80;99.90
19132;DHT22;9698;51.976;7.570;2023-05-25T09:49:08;16.20;99.90
19132;DHT22;9698;51.976;7.570;2023-05-25T09:51:35;16.00;99.90
19132;DHT22;9698;51.976;7.570;2023-05-25T09:54:07;16.40;99.90
19132;DHT22;9698;51.976;7.570;2023-05-25T09:56:35;18.00;99.90
19132;DHT22;9698;51.976;7.570;2023-05-25T09:59:04;16.80;99.90
19132;DHT22;9698;51.976;7.570;2023-05-25T10:01:33;16.80;99.90
19132;DHT22;9698;51.976;7.570;2023-05-25T10:04:01;16.90;99.90
19132;DHT22;9698;51.976;7.570;2023-05-25T10:06:32;16.90;99.90
19132;DHT22;9698;51.976;7.570;2023-05-25T10:09:01;16.90;99.90
19132;DHT22;9698;51.976;7.570;2023-05-25T10:11:32;16.70;92.50
19132;DHT22;9698;51.976;7.570;2023-05-25T10:14:05;16.30;47.30
19132;DHT22;9698;51.976;7.570;2023-05-25T10:16:34;15.90;90.10
19132;DHT22;9698;51.976;7.570;2023-05-25T10:19:11;15.80;99.90
19132;DHT22;9698;51.976;7.570;2023-05-25T10:21:42;15.60;99.90
19132;DHT22;9698;51.976;7.570;2023-05-25T10:24:19;15.50;99.90
19132;DHT22;9698;51.976;7.570;2023-05-25T10:26:53;15.50;99.90
19132;DHT22;9698;51.976;7.570;2023-05-25T10:29:24;15.30;99.90
19132;DHT22;9698;51.976;7.570;2023-05-25T10:31:54;15.30;99.90
19132;DHT22;9698;51.976;7.570;2023-05-25T10:34:22;15.30;99.90
19132;DHT22;9698;51.976;7.570;2023-05-25T10:36:51;15.30;99.90
19132;DHT22;9698;51.976;7.570;2023-05-25T10:42:12;15.40;99.90
19132;DHT22;9698;51.976;7.570;2023-05-25T10:44:41;15.30;99.90
19132;DHT22;9698;51.976;7.570;2023-05-25T10:47:10;15.30;99.90
19132;DHT22;9698;51.976;7.570;2023-05-25T10:49:52;15.40;99.90
19132;DHT22;9698;51.976;7.570;2023-05-25T10:52:21;15.20;99.90
19132;DHT22;9698;51.976;7.570;2023-05-25T10:57:43;15.50;99.90
19132;DHT22;9698;51.976;7.570;2023-05-25T11:03:01;15.50;99.90
19132;DHT22;9698;51.976;7.570;2023-05-25T11:05:37;15.50;99.90
19132;DHT22;9698;51.976;7.570;2023-05-25T11:08:07;15.20;99.90
19132;DHT22;9698;51.976;7.570;2023-05-25T11:10:51;15.50;99.90
19132;DHT22;9698;51.976;7.570;2023-05-25T11:13:31;15.70;99.90
19132;DHT22;9698;51.976;7.570;2023-05-25T11:16:15;15.60;99.90
19132;DHT22;9698;51.976;7.570;2023-05-25T11:18:45;15.60;99.90
19132;DHT22;9698;51.976;7.570;2023-05-25T11:21:21;15.70;99.90
19132;DHT22;9698;51.976;7.570;2023-05-25T11:26:56;16.00;92.70
19132;DHT22;9698;51.976;7.570;2023-05-25T11:29:25;16.20;80.40
19132;DHT22;9698;51.976;7.570;2023-05-25T11:31:57;16.10;39.90
19132;DHT22;9698;51.976;7.570;2023-05-25T11:37:17;16.00;14.10
19132;DHT22;9698;51.976;7.570;2023-05-25T11:39:47;16.10;98.70
19132;DHT22;9698;51.976;7.570;2023-05-25T11:42:20;16.00;75.80
19132;DHT22;9698;51.976;7.570;2023-05-25T11:44:48;16.10;99.90
19132;DHT22;9698;51.976;7.570;2023-05-25T11:47:18;16.20;83.00
19132;DHT22;9698;51.976;7.570;2023-05-25T11:49:49;16.20;28.10
19132;DHT22;9698;51.976;7.570;2023-05-25T11:52:18;16.10;1.00
19132;DHT22;9698;51.976;7.570;2023-05-25T11:54:47;16.00;50.60
19132;DHT22;9698;51.976;7.570;2023-05-25T11:57:17;16.10;62.20
19132;DHT22;9698;51.976;7.570;2023-05-25T12:02:17;16.40;78.20
19132;DHT22;9698;51.976;7.570;2023-05-25T12:04:53;16.50;58.70
19132;DHT22;9698;51.976;7.570;2023-05-25T12:07:22;16.70;6.60
19132;DHT22;9698;51.976;7.570;2023-05-25T12:09:50;16.70;1.00
19132;DHT22;9698;51.976;7.570;2023-05-25T12:12:19;16.70;1.00
19132;DHT22;9698;51.976;7.570;2023-05-25T12:14:47;16.70;1.00
19132;DHT22;9698;51.976;7.570;2023-05-25T12:20:07;16.70;1.00
19132;DHT22;9698;51.976;7.570;2023-05-25T12:22:35;16.80;1.00
19132;DHT22;9698;51.976;7.570;2023-05-25T12:25:06;16.80;1.00
19132;DHT22;9698;51.976;7.570;2023-05-25T12:27:35;16.90;1.90
19132;DHT22;9698;51.976;7.570;2023-05-25T12:30:04;17.00;99.90
19132;DHT22;9698;51.976;7.570;2023-05-25T12:32:33;17.00;1.00
19132;DHT22;9698;51.976;7.570;2023-05-25T12:35:06;16.80;1.00
19132;DHT22;9698;51.976;7.570;2023-05-25T12:37:34;16.60;1.00
19132;DHT22;9698;51.976;7.570;2023-05-25T12:40:16;16.60;1.00
19132;DHT22;9698;51.976;7.570;2023-05-25T12:42:44;16.50;1.00
19132;DHT22;9698;51.976;7.570;2023-05-25T12:45:12;16.50;6.80
19132;DHT22;9698;51.976;7.570;2023-05-25T12:47:45;16.70;1.00
19132;DHT22;9698;51.976;7.570;2023-05-25T12:50:14;16.80;9.60
19132;DHT22;9698;51.976;7.570;2023-05-25T12:52:44;16.90;1.00
19132;DHT22;9698;51.976;7.570;2023-05-25T12:55:23;17.00;1.00
19132;DHT22;9698;51.976;7.570;2023-05-25T12:57:54;16.90;1.00
19132;DHT22;9698;51.976;7.570;2023-05-25T13:00:25;17.50;1.00
19132;DHT22;9698;51.976;7.570;2023-05-25T13:02:53;17.60;1.00
19132;DHT22;9698;51.976;7.570;2023-05-25T13:05:22;17.50;1.00
19132;DHT22;9698;51.976;7.570;2023-05-25T13:07:52;17.50;1.00
19132;DHT22;9698;51.976;7.570;2023-05-25T13:10:21;17.30;1.00
19132;DHT22;9698;51.976;7.570;2023-05-25T13:12:50;17.20;1.00
19132;DHT22;9698;51.976;7.570;2023-05-25T13:15:20;17.00;1.00
19132;DHT22;9698;51.976;7.570;2023-05-25T13:17:48;17.10;99.90
19132;DHT22;9698;51.976;7.570;2023-05-25T13:20:18;17.70;99.90
19132;DHT22;9698;51.976;7.570;2023-05-25T13:22:47;17.70;99.90
19132;DHT22;9698;51.976;7.570;2023-05-25T13:25:15;17.80;41.90
19132;DHT22;9698;51.976;7.570;2023-05-25T13:27:45;17.80;49.90
19132;DHT22;9698;51.976;7.570;2023-05-25T13:30:14;18.20;68.80
19132;DHT22;9698;51.976;7.570;2023-05-25T13:32:42;18.40;1.00
19132;DHT22;9698;51.976;7.570;2023-05-25T13:35:11;18.40;1.00
19132;DHT22;9698;51.976;7.570;2023-05-25T13:37:44;18.60;1.80
19132;DHT22;9698;51.976;7.570;2023-05-25T13:40:12;18.70;1.00
19132;DHT22;9698;51.976;7.570;2023-05-25T13:42:40;18.70;1.00
19132;DHT22;9698;51.976;7.570;2023-05-25T13:45:10;18.70;1.00
19132;DHT22;9698;51.976;7.570;2023-05-25T13:50:24;18.60;1.00
19132;DHT22;9698;51.976;7.570;2023-05-25T13:52:52;18.60;1.00
19132;DHT22;9698;51.976;7.570;2023-05-25T13:55:20;18.50;1.00
19132;DHT22;9698;51.976;7.570;2023-05-25T13:57:49;18.70;1.00
19132;DHT22;9698;51.976;7.570;2023-05-25T14:00:18;18.40;1.00
19132;DHT22;9698;51.976;7.570;2023-05-25T14:02:46;18.40;1.00
19132;DHT22;9698;51.976;7.570;2023-05-25T14:05:14;18.30;1.00
19132;DHT22;9698;51.976;7.570;2023-05-25T14:07:42;18.10;1.00
19132;DHT22;9698;51.976;7.570;2023-05-25T14:10:11;18.00;1.00
19132;DHT22;9698;51.976;7.570;2023-05-25T14:12:39;17.80;1.00
19132;DHT22;9698;51.976;7.570;2023-05-25T14:15:09;17.80;1.00
19132;DHT22;9698;51.976;7.570;2023-05-25T14:17:37;17.70;1.00
19132;DHT22;9698;51.976;7.570;2023-05-25T14:20:07;17.80;1.00
19132;DHT22;9698;51.976;7.570;2023-05-25T14:22:35;17.80;1.00
19132;DHT22;9698;51.976;7.570;2023-05-25T14:25:05;17.90;1.00
19132;DHT22;9698;51.976;7.570;2023-05-25T14:27:33;18.10;1.00
19132;DHT22;9698;51.976;7.570;2023-05-25T14:30:00;18.10;1.00
19132;DHT22;9698;51.976;7.570;2023-05-25T14:32:28;18.00;1.00
19132;DHT22;9698;51.976;7.570;2023-05-25T14:34:56;18.10;1.00
19132;DHT22;9698;51.976;7.570;2023-05-25T14:37:24;18.30;25.60
19132;DHT22;9698;51.976;7.570;2023-05-25T14:39:52;18.50;8.00
19132;DHT22;9698;51.976;7.570;2023-05-25T14:42:20;18.40;1.00
19132;DHT22;9698;51.976;7.570;2023-05-25T14:44:48;19.00;1.00
19132;DHT22;9698;51.976;7.570;2023-05-25T14:47:16;19.20;1.00
19132;DHT22;9698;51.976;7.570;2023-05-25T14:49:44;19.50;1.00
19132;DHT22;9698;51.976;7.570;2023-05-25T14:52:12;19.60;1.00
19132;DHT22;9698;51.976;7.570;2023-05-25T14:54:40;19.70;1.00
19132;DHT22;9698;51.976;7.570;2023-05-25T14:57:11;19.50;1.00
19132;DHT22;9698;51.976;7.570;2023-05-25T14:59:39;19.10;1.00
19132;DHT22;9698;51.976;7.570;2023-05-25T15:02:07;19.70;1.00
19132;DHT22;9698;51.976;7.570;2023-05-25T15:04:35;19.80;1.00
19132;DHT22;9698;51.976;7.570;2023-05-25T15:07:03;19.80;99.90
19132;DHT22;9698;51.976;7.570;2023-05-25T15:09:31;19.80;99.90
19132;DHT22;9698;51.976;7.570;2023-05-25T15:11:59;19.90;99.90
19132;DHT22;9698;51.976;7.570;2023-05-25T15:14:28;20.30;99.90
19132;DHT22;9698;51.976;7.570;2023-05-25T15:16:56;20.00;1.00
19132;DHT22;9698;51.976;7.570;2023-05-25T15:19:23;20.30;1.00
19132;DHT22;9698;51.976;7.570;2023-05-25T15:21:51;20.50;99.90
19132;DHT22;9698;51.976;7.570;2023-05-25T15:24:19;20.30;99.90
19132;DHT22;9698;51.976;7.570;2023-05-25T15:26:47;20.30;99.90
19132;DHT22;9698;51.976;7.570;2023-05-25T15:29:15;20.60;99.90
19132;DHT22;9698;51.976;7.570;2023-05-25T15:31:44;20.10;99.90
19132;DHT22;9698;51.976;7.570;2023-05-25T15:34:12;20.30;99.90
19132;DHT22;9698;51.976;7.570;2023-05-25T15:36:41;20.50;99.90
19132;DHT22;9698;51.976;7.570;2023-05-25T15:39:09;20.60;99.90
19132;DHT22;9698;51.976;7.570;2023-05-25T15:41:37;20.60;99.90
19132;DHT22;9698;51.976;7.570;2023-05-25T15:44:05;20.50;19.10
19132;DHT22;9698;51.976;7.570;2023-05-25T15:46:34;20.40;46.80
19132;DHT22;9698;51.976;7.570;2023-05-25T15:49:02;20.40;1.00
19132;DHT22;9698;51.976;7.570;2023-05-25T15:51:38;20.40;31.00
19132;DHT22;9698;51.976;7.570;2023-05-25T15:54:07;20.50;85.90
19132;DHT22;9698;51.976;7.570;2023-05-25T15:56:39;20.80;89.20
19132;DHT22;9698;51.976;7.570;2023-05-25T15:59:07;20.70;38.20
19132;DHT22;9698;51.976;7.570;2023-05-25T16:01:35;20.70;99.90
19132;DHT22;9698;51.976;7.570;2023-05-25T16:04:03;20.60;99.90
19132;DHT22;9698;51.976;7.570;2023-05-25T16:09:16;20.80;99.90
19132;DHT22;9698;51.976;7.570;2023-05-25T16:11:44;20.80;1.00
19132;DHT22;9698;51.976;7.570;2023-05-25T16:14:11;20.70;31.90
19132;DHT22;9698;51.976;7.570;2023-05-25T16:16:39;20.50;25.50
19132;DHT22;9698;51.976;7.570;2023-05-25T16:19:07;20.30;99.90
19132;DHT22;9698;51.976;7.570;2023-05-25T16:21:35;20.30;99.90
19132;DHT22;9698;51.976;7.570;2023-05-25T16:24:04;20.20;99.90
19132;DHT22;9698;51.976;7.570;2023-05-25T16:26:33;20.30;99.90
19132;DHT22;9698;51.976;7.570;2023-05-25T16:29:00;20.40;99.90
19132;DHT22;9698;51.976;7.570;2023-05-25T16:31:28;20.50;99.90
19132;DHT22;9698;51.976;7.570;2023-05-25T16:33:56;20.80;99.90
19132;DHT22;9698;51.976;7.570;2023-05-25T16:36:24;21.00;99.90
19132;DHT22;9698;51.976;7.570;2023-05-25T16:38:53;21.30;99.90
19132;DHT22;9698;51.976;7.570;2023-05-25T16:41:21;21.10;1.40
19132;DHT22;9698;51.976;7.570;2023-05-25T16:43:49;21.10;99.90
19132;DHT22;9698;51.976;7.570;2023-05-25T16:46:17;21.20;9.00